createdAt,value
2018-11-28T00:00:32.611Z,23.27
2018-11-28T00:03:00.264Z,26.73
2018-11-28T00:05:27.554Z,24.83
2018-11-28T00:07:54.845Z,20.67
2018-11-28T00:10:22.135Z,22.73
2018-11-28T00:12:49.371Z,23.73
2018-11-28T00:15:16.608Z,22.03
2018-11-28T00:17:43.784Z,20.13
2018-11-28T00:20:11.491Z,18.00
2018-11-28T00:22:38.748Z,19.93
2018-11-28T00:25:06.377Z,20.63
2018-11-28T00:27:33.648Z,19.23
2018-11-28T00:30:00.898Z,18.57
2018-11-28T00:32:28.150Z,17.00
2018-11-28T00:34:55.339Z,17.40
2018-11-28T00:37:22.592Z,17.50
2018-11-28T00:39:49.754Z,17.10
2018-11-28T00:42:16.996Z,17.63
2018-11-28T00:44:44.222Z,15.53
2018-11-28T00:47:11.437Z,18.33
2018-11-28T00:49:38.777Z,17.27
2018-11-28T00:52:06.030Z,17.83
2018-11-28T00:54:33.271Z,19.83
2018-11-28T00:57:00.563Z,21.03
2018-11-28T00:59:27.783Z,21.20
2018-11-28T01:01:54.975Z,19.23
2018-11-28T01:04:22.211Z,20.67
2018-11-28T01:06:49.438Z,19.77
2018-11-28T01:09:16.669Z,17.50
2018-11-28T01:11:43.926Z,17.60
2018-11-28T01:14:11.182Z,16.50
2018-11-28T01:16:38.443Z,17.43
2018-11-28T01:19:05.628Z,16.53
2018-11-28T01:21:32.872Z,16.93
2018-11-28T01:24:00.045Z,16.23
2018-11-28T01:26:27.266Z,18.27
2018-11-28T01:28:54.484Z,15.20
2018-11-28T01:31:21.702Z,17.17
2018-11-28T01:33:48.951Z,15.40
2018-11-28T01:36:16.208Z,16.57
2018-11-28T01:38:43.469Z,15.77
2018-11-28T01:41:10.692Z,15.80
2018-11-28T01:43:37.967Z,16.63
2018-11-28T01:46:05.206Z,15.77
2018-11-28T01:48:32.448Z,17.33
2018-11-28T01:50:59.663Z,16.07
2018-11-28T01:53:26.894Z,16.73
2018-11-28T01:55:54.084Z,15.50
2018-11-28T01:58:21.350Z,16.27
2018-11-28T02:00:48.588Z,14.47
2018-11-28T02:03:15.974Z,15.07
2018-11-28T02:05:43.201Z,15.00
2018-11-28T02:08:10.454Z,17.03
2018-11-28T02:10:37.703Z,15.40
2018-11-28T02:13:04.899Z,15.40
2018-11-28T02:15:32.166Z,16.07
2018-11-28T02:17:59.366Z,15.23
2018-11-28T02:20:26.610Z,14.53
2018-11-28T02:22:53.870Z,15.00
2018-11-28T02:25:21.077Z,14.87
2018-11-28T02:27:48.330Z,16.53
2018-11-28T02:30:16.829Z,15.57
2018-11-28T02:32:44.324Z,15.57
2018-11-28T02:35:11.955Z,15.50
2018-11-28T02:37:39.181Z,16.13
2018-11-28T02:40:08.671Z,15.60
2018-11-28T02:42:35.907Z,16.90
2018-11-28T02:45:04.098Z,17.07
2018-11-28T02:47:31.316Z,16.60
2018-11-28T02:49:58.543Z,17.23
2018-11-28T02:52:25.767Z,16.87
2018-11-28T02:54:53.028Z,17.50
2018-11-28T02:57:20.262Z,15.97
2018-11-28T02:59:47.475Z,16.40
2018-11-28T03:02:14.698Z,17.47
2018-11-28T03:04:41.908Z,17.70
2018-11-28T03:07:09.143Z,17.30
2018-11-28T03:09:36.393Z,17.47
2018-11-28T03:12:03.696Z,18.93
2018-11-28T03:14:30.943Z,17.57
2018-11-28T03:16:58.150Z,18.57
2018-11-28T03:19:25.387Z,20.23
2018-11-28T03:21:52.641Z,19.97
2018-11-28T03:24:19.801Z,20.70
2018-11-28T03:26:47.040Z,22.73
2018-11-28T03:29:14.250Z,24.37
2018-11-28T03:31:41.502Z,24.47
2018-11-28T03:34:08.680Z,23.20
2018-11-28T03:36:36.027Z,22.63
2018-11-28T03:39:05.287Z,22.77
2018-11-28T03:41:32.547Z,23.63
2018-11-28T03:43:59.758Z,23.27
2018-11-28T03:46:26.957Z,24.63
2018-11-28T03:48:54.159Z,24.00
2018-11-28T03:51:21.321Z,22.93
2018-11-28T03:53:48.561Z,23.07
2018-11-28T03:56:15.833Z,24.93
2018-11-28T03:58:43.065Z,23.40
2018-11-28T04:01:10.282Z,22.37
2018-11-28T04:03:37.511Z,22.60
2018-11-28T04:06:05.300Z,20.93
2018-11-28T04:08:32.468Z,20.60
2018-11-28T04:10:59.712Z,19.80
2018-11-28T04:13:26.970Z,21.03
2018-11-28T04:15:54.179Z,20.07
2018-11-28T04:18:21.423Z,19.33
2018-11-28T04:20:48.641Z,21.07
2018-11-28T04:23:15.898Z,19.20
2018-11-28T04:25:43.079Z,19.20
2018-11-28T04:28:10.327Z,19.53
2018-11-28T04:30:37.546Z,20.57
2018-11-28T04:33:04.772Z,19.20
2018-11-28T04:35:31.993Z,20.37
2018-11-28T04:37:59.227Z,20.57
2018-11-28T04:40:26.456Z,19.70
2018-11-28T04:42:53.728Z,20.13
2018-11-28T04:45:21.303Z,19.83
2018-11-28T04:47:48.761Z,19.53
2018-11-28T04:50:16.030Z,18.57
2018-11-28T04:52:43.283Z,20.13
2018-11-28T04:55:13.856Z,20.40
2018-11-28T04:57:41.111Z,19.30
2018-11-28T05:00:25.651Z,19.47
2018-11-28T05:02:53.426Z,18.73
2018-11-28T05:05:20.658Z,18.30
2018-11-28T05:07:49.413Z,20.67
2018-11-28T05:10:17.826Z,18.70
2018-11-28T05:12:45.064Z,19.03
2018-11-28T05:15:13.658Z,19.87
2018-11-28T05:17:40.897Z,20.80
2018-11-28T05:20:08.703Z,18.67
2018-11-28T05:22:35.902Z,20.40
2018-11-28T05:25:03.122Z,19.50
2018-11-28T05:27:30.341Z,19.87
2018-11-28T05:29:57.574Z,19.43
2018-11-28T05:32:24.791Z,21.67
2018-11-28T05:34:52.042Z,21.70
2018-11-28T05:37:19.271Z,19.50
2018-11-28T05:39:46.446Z,20.13
2018-11-28T05:42:13.659Z,20.37
2018-11-28T05:44:40.914Z,20.63
2018-11-28T05:47:08.134Z,21.50
2018-11-28T05:49:35.370Z,20.03
2018-11-28T05:52:02.559Z,20.90
2018-11-28T05:54:29.779Z,19.97
2018-11-28T05:56:57.030Z,20.63
2018-11-28T05:59:27.350Z,20.43
2018-11-28T06:01:51.515Z,19.73
2018-11-28T06:04:18.752Z,18.37
2018-11-28T06:06:45.970Z,19.60
2018-11-28T06:09:13.134Z,19.83
2018-11-28T06:11:40.383Z,20.07
2018-11-28T06:14:07.626Z,19.33
2018-11-28T06:16:35.542Z,20.00
2018-11-28T06:19:02.770Z,21.27
2018-11-28T06:21:30.055Z,20.53
2018-11-28T06:23:57.243Z,21.90
2018-11-28T06:26:24.447Z,21.27
2018-11-28T06:28:51.682Z,20.63
2018-11-28T06:31:18.917Z,21.77
2018-11-28T06:33:46.115Z,21.83
2018-11-28T06:36:13.354Z,22.27
2018-11-28T06:38:40.582Z,23.23
2018-11-28T06:41:07.847Z,24.80
2018-11-28T06:43:35.071Z,21.97
2018-11-28T06:46:02.259Z,22.23
2018-11-28T06:48:29.438Z,21.97
2018-11-28T06:50:56.726Z,21.30
2018-11-28T06:53:23.951Z,23.00
2018-11-28T06:55:51.158Z,22.57
2018-11-28T06:58:18.432Z,23.10
2018-11-28T07:00:45.670Z,24.07
2018-11-28T07:03:12.870Z,24.07
2018-11-28T07:05:40.143Z,24.60
2018-11-28T07:08:07.365Z,26.10
2018-11-28T07:10:34.617Z,23.87
2018-11-28T07:13:01.821Z,33.30
2018-11-28T07:15:29.079Z,29.13
2018-11-28T07:18:01.858Z,25.47
2018-11-28T07:20:29.118Z,26.23
2018-11-28T07:22:56.331Z,25.63
2018-11-28T07:25:23.575Z,25.67
2018-11-28T07:27:50.810Z,26.43
2018-11-28T07:30:19.365Z,30.60
2018-11-28T07:32:46.998Z,30.33
2018-11-28T07:35:14.300Z,26.53
2018-11-28T07:37:41.521Z,27.63
2018-11-28T07:40:09.519Z,24.73
2018-11-28T07:42:36.808Z,26.67
2018-11-28T07:45:04.546Z,26.47
2018-11-28T07:47:31.803Z,25.07
2018-11-28T07:49:58.955Z,27.60
2018-11-28T07:52:26.118Z,25.77
2018-11-28T07:54:53.370Z,26.20
2018-11-28T07:57:20.596Z,26.43
2018-11-28T07:59:47.754Z,24.83
2018-11-28T08:02:14.984Z,24.07
2018-11-28T08:04:42.217Z,24.80
2018-11-28T08:07:09.443Z,23.70
2018-11-28T08:09:36.700Z,23.37
2018-11-28T08:12:04.413Z,22.37
2018-11-28T08:14:31.583Z,24.17
2018-11-28T08:16:58.819Z,22.27
2018-11-28T08:19:26.045Z,24.40
2018-11-28T08:21:53.302Z,23.60
2018-11-28T08:24:20.533Z,22.13
2018-11-28T08:26:47.766Z,21.83
2018-11-28T08:29:15.037Z,22.57
2018-11-28T08:31:42.122Z,22.70
2018-11-28T08:34:09.287Z,22.00
2018-11-28T08:36:36.452Z,22.77
2018-11-28T08:39:04.339Z,22.87
2018-11-28T08:41:31.537Z,21.50
2018-11-28T08:43:58.689Z,20.67
2018-11-28T08:46:26.970Z,21.80
2018-11-28T08:48:53.242Z,22.27
2018-11-28T08:51:20.462Z,21.63
2018-11-28T08:53:47.680Z,22.13
2018-11-28T08:56:14.946Z,20.90
2018-11-28T08:58:42.169Z,23.27
2018-11-28T09:01:09.393Z,22.13
2018-11-28T09:03:36.615Z,21.10
2018-11-28T09:06:03.819Z,20.90
2018-11-28T09:08:31.063Z,21.30
2018-11-28T09:10:58.289Z,21.73
2018-11-28T09:13:25.543Z,20.50
2018-11-28T09:15:52.698Z,21.70
2018-11-28T09:18:19.947Z,20.67
2018-11-28T09:20:47.179Z,21.60
2018-11-28T09:23:14.392Z,19.50
2018-11-28T09:25:41.647Z,19.83
2018-11-28T09:28:08.875Z,21.30
2018-11-28T09:30:36.051Z,19.43
2018-11-28T09:33:03.427Z,19.23
2018-11-28T09:35:30.634Z,20.10
2018-11-28T09:37:57.794Z,20.93
2018-11-28T09:40:25.422Z,18.73
2018-11-28T09:42:53.137Z,19.97
2018-11-28T09:45:20.486Z,19.77
2018-11-28T09:47:47.745Z,18.70
2018-11-28T09:50:17.193Z,19.63
2018-11-28T09:52:44.442Z,21.10
2018-11-28T09:55:19.631Z,20.07
2018-11-28T09:57:46.919Z,20.77
2018-11-28T10:00:14.647Z,19.80
2018-11-28T10:02:41.877Z,19.83
2018-11-28T10:05:10.692Z,19.60
2018-11-28T10:07:37.937Z,19.37
2018-11-28T10:10:06.494Z,18.57
2018-11-28T10:12:33.727Z,19.30
2018-11-28T10:15:00.967Z,20.20
2018-11-28T10:17:28.220Z,18.67
2018-11-28T10:19:55.397Z,19.03
2018-11-28T10:22:22.629Z,19.57
2018-11-28T10:24:49.859Z,20.57
2018-11-28T10:27:17.075Z,20.43
2018-11-28T10:29:44.341Z,20.20
2018-11-28T10:32:11.506Z,21.50
2018-11-28T10:34:38.754Z,21.73
2018-11-28T10:37:06.007Z,21.33
2018-11-28T10:39:33.251Z,20.20
2018-11-28T10:42:00.454Z,20.83
2018-11-28T10:44:27.695Z,20.80
2018-11-28T10:46:54.915Z,24.83
2018-11-28T10:49:22.159Z,20.17
2018-11-28T10:51:50.385Z,19.13
2018-11-28T10:54:16.638Z,20.10
2018-11-28T10:56:43.885Z,20.93
2018-11-28T10:59:11.156Z,20.37
2018-11-28T11:01:44.153Z,19.37
2018-11-28T11:04:14.589Z,25.07
2018-11-28T11:06:47.702Z,21.40
2018-11-28T11:09:20.547Z,21.13
2018-11-28T11:11:53.363Z,20.90
2018-11-28T11:14:26.233Z,21.27
2018-11-28T11:16:53.453Z,23.13
2018-11-28T11:19:20.705Z,21.57
2018-11-28T11:21:47.900Z,20.93
2018-11-28T11:24:15.143Z,18.47
2018-11-28T11:26:42.334Z,19.43
2018-11-28T11:29:09.578Z,18.83
2018-11-28T11:31:36.792Z,19.40
2018-11-28T11:34:04.118Z,18.83
2018-11-28T11:36:31.338Z,19.13
2018-11-28T11:38:58.575Z,18.63
2018-11-28T11:41:25.852Z,18.23
2018-11-28T11:43:53.058Z,18.07
2018-11-28T11:46:20.320Z,18.27
2018-11-28T11:48:47.535Z,16.70
2018-11-28T11:51:14.756Z,18.17
2018-11-28T11:53:41.974Z,17.27
2018-11-28T11:56:09.235Z,18.53
2018-11-28T11:58:36.486Z,16.23
2018-11-28T12:01:04.220Z,17.77
2018-11-28T12:03:31.441Z,19.03
2018-11-28T12:05:58.730Z,16.73
2018-11-28T12:08:26.602Z,16.90
2018-11-28T12:10:53.860Z,17.17
2018-11-28T12:13:21.074Z,18.10
2018-11-28T12:15:48.310Z,16.80
2018-11-28T12:18:15.640Z,17.07
2018-11-28T12:20:43.539Z,17.27
2018-11-28T12:23:10.776Z,17.70
2018-11-28T12:25:37.956Z,18.97
2018-11-28T12:28:05.685Z,17.33
2018-11-28T12:30:32.956Z,18.17
2018-11-28T12:33:00.208Z,17.53
2018-11-28T12:35:27.445Z,16.73
2018-11-28T12:37:54.750Z,17.00
2018-11-28T12:40:21.974Z,16.07
2018-11-28T12:42:49.770Z,16.20
2018-11-28T12:45:17.467Z,15.80
2018-11-28T12:47:44.980Z,15.53
2018-11-28T12:50:22.250Z,16.13
2018-11-28T12:52:49.595Z,16.13
2018-11-28T12:55:17.072Z,17.87
2018-11-28T12:57:44.266Z,16.50
2018-11-28T13:00:12.258Z,16.60
2018-11-28T13:02:39.464Z,15.13
2018-11-28T13:05:11.267Z,16.07
2018-11-28T13:07:38.509Z,14.97
2018-11-28T13:10:08.197Z,14.10
2018-11-28T13:12:35.438Z,14.73
2018-11-28T13:15:02.648Z,14.80
2018-11-28T13:17:29.875Z,13.50
2018-11-28T13:19:59.016Z,16.10
2018-11-28T13:22:24.262Z,17.80
2018-11-28T13:24:51.463Z,13.70
2018-11-28T13:27:18.656Z,13.20
2018-11-28T13:29:45.817Z,13.80
2018-11-28T13:32:13.072Z,12.37
2018-11-28T13:34:40.307Z,12.83
2018-11-28T13:37:07.535Z,13.93
2018-11-28T13:39:34.761Z,13.80
2018-11-28T13:42:01.987Z,12.83
2018-11-28T13:44:29.330Z,13.60
2018-11-28T13:46:56.512Z,13.67
2018-11-28T13:49:23.787Z,14.30
2018-11-28T13:51:51.027Z,14.63
2018-11-28T13:54:21.420Z,12.93
2018-11-28T13:57:09.573Z,13.73
2018-11-28T13:59:12.842Z,13.47
2018-11-28T14:01:40.066Z,12.20
2018-11-28T14:04:07.310Z,13.27
2018-11-28T14:06:34.575Z,12.87
2018-11-28T14:09:01.873Z,11.97
2018-11-28T14:11:29.067Z,12.67
2018-11-28T14:13:56.370Z,12.07
2018-11-28T14:16:23.583Z,13.40
2018-11-28T14:18:50.818Z,12.93
2018-11-28T14:21:18.080Z,13.27
2018-11-28T14:23:45.327Z,14.00
2018-11-28T14:26:12.567Z,15.43
2018-11-28T14:28:39.818Z,15.10
2018-11-28T14:31:07.124Z,14.57
2018-11-28T14:33:34.393Z,15.27
2018-11-28T14:36:01.650Z,14.37
2018-11-28T14:38:28.914Z,14.63
2018-11-28T14:40:56.160Z,14.93
2018-11-28T14:43:23.421Z,19.17
2018-11-28T14:45:50.681Z,16.63
2018-11-28T14:48:17.918Z,15.23
2018-11-28T14:50:45.157Z,15.87
2018-11-28T14:53:12.496Z,14.93
2018-11-28T14:55:40.028Z,15.17
2018-11-28T14:58:08.586Z,16.40
2018-11-28T15:00:35.861Z,14.70
2018-11-28T15:03:06.988Z,14.80
2018-11-28T15:05:52.476Z,14.57
2018-11-28T15:08:19.719Z,14.93
2018-11-28T15:10:47.989Z,14.70
2018-11-28T15:13:15.277Z,15.37
2018-11-28T15:15:42.482Z,16.57
2018-11-28T15:18:09.711Z,16.03
2018-11-28T15:20:36.968Z,18.50
2018-11-28T15:23:04.547Z,15.80
2018-11-28T15:25:31.818Z,17.40
2018-11-28T15:27:59.016Z,16.20
2018-11-28T15:30:26.275Z,16.63
2018-11-28T15:32:53.478Z,16.87
2018-11-28T15:35:20.874Z,19.00
2018-11-28T15:37:48.247Z,18.90
2018-11-28T15:40:16.381Z,17.07
2018-11-28T15:42:43.666Z,17.50
2018-11-28T15:45:10.916Z,17.53
2018-11-28T15:47:38.144Z,19.67
2018-11-28T15:50:06.487Z,18.73
2018-11-28T15:52:33.775Z,19.23
2018-11-28T15:55:00.971Z,18.27
2018-11-28T15:57:28.219Z,18.70
2018-11-28T15:59:55.393Z,20.37
2018-11-28T16:02:22.629Z,19.03
2018-11-28T16:04:49.854Z,20.83
2018-11-28T16:07:17.102Z,18.30
2018-11-28T16:10:47.135Z,20.57
2018-11-28T16:13:15.162Z,19.27
2018-11-28T16:15:47.014Z,20.47
2018-11-28T16:18:14.302Z,19.40
2018-11-28T16:20:41.522Z,19.07
2018-11-28T16:23:08.766Z,20.17
2018-11-28T16:25:36.021Z,18.70
2018-11-28T16:28:03.279Z,19.87
2018-11-28T16:30:30.539Z,20.30
2018-11-28T16:32:57.765Z,20.73
2018-11-28T16:35:24.991Z,20.23
2018-11-28T16:37:52.171Z,19.60
2018-11-28T16:40:19.517Z,20.00
2018-11-28T16:42:46.839Z,20.00
2018-11-28T16:45:16.619Z,17.40
2018-11-28T16:47:43.855Z,17.57
2018-11-28T16:50:11.538Z,17.83
2018-11-28T16:52:38.808Z,18.33
2018-11-28T16:55:06.753Z,18.97
2018-11-28T16:57:33.999Z,17.97
2018-11-28T17:00:01.257Z,16.23
2018-11-28T17:02:28.503Z,16.20
2018-11-28T17:04:55.757Z,17.43
2018-11-28T17:07:22.970Z,17.60
2018-11-28T17:09:50.263Z,16.20
2018-11-28T17:12:17.495Z,17.57
2018-11-28T17:14:44.737Z,15.07
2018-11-28T17:17:12.017Z,18.27
2018-11-28T17:19:39.341Z,18.27
2018-11-28T17:22:06.518Z,17.07
2018-11-28T17:24:33.707Z,17.60
2018-11-28T17:27:00.977Z,18.77
2018-11-28T17:29:28.238Z,20.37
2018-11-28T17:31:55.443Z,18.80
2018-11-28T17:34:22.744Z,20.60
2018-11-28T17:36:49.984Z,19.20
2018-11-28T17:39:17.242Z,20.03
2018-11-28T17:41:44.526Z,20.53
2018-11-28T17:44:11.804Z,21.37
2018-11-28T17:46:39.059Z,21.20
2018-11-28T17:49:06.379Z,20.47
2018-11-28T17:51:33.630Z,19.83
2018-11-28T17:54:01.214Z,21.60
2018-11-28T17:56:28.451Z,20.67
2018-11-28T17:58:55.667Z,22.57
2018-11-28T18:01:22.878Z,21.37
2018-11-28T18:03:50.115Z,22.53
2018-11-28T18:06:17.363Z,22.77
2018-11-28T18:08:44.602Z,22.10
2018-11-28T18:11:12.383Z,22.50
2018-11-28T18:13:39.761Z,23.10
2018-11-28T18:16:06.965Z,24.80
2018-11-28T18:18:34.258Z,24.30
2018-11-28T18:21:01.543Z,23.10
2018-11-28T18:23:28.851Z,23.50
2018-11-28T18:25:56.163Z,23.37
2018-11-28T18:28:23.440Z,23.93
2018-11-28T18:30:50.742Z,22.73
2018-11-28T18:33:18.070Z,22.17
2018-11-28T18:35:45.336Z,21.10
2018-11-28T18:38:12.601Z,20.20
2018-11-28T18:40:40.002Z,21.87
2018-11-28T18:43:07.839Z,22.47
2018-11-28T18:45:36.479Z,20.73
2018-11-28T18:48:03.387Z,21.57
2018-11-28T18:50:31.167Z,22.30
2018-11-28T18:52:58.471Z,21.90
2018-11-28T18:55:25.783Z,22.60
2018-11-28T18:57:53.759Z,21.87
2018-11-28T19:00:21.590Z,23.07
2018-11-28T19:02:48.914Z,25.00
2018-11-28T19:05:16.172Z,21.93
2018-11-28T19:07:43.425Z,23.93
2018-11-28T19:10:11.416Z,23.40
2018-11-28T19:12:38.669Z,23.87
2018-11-28T19:15:07.666Z,22.90
2018-11-28T19:17:34.908Z,23.70
2018-11-28T19:20:02.469Z,22.63
2018-11-28T19:22:30.021Z,22.80
2018-11-28T19:24:57.466Z,24.03
2018-11-28T19:27:24.719Z,24.43
2018-11-28T19:29:51.916Z,23.70
2018-11-28T19:32:19.160Z,23.47
2018-11-28T19:34:46.443Z,21.60
2018-11-28T19:37:13.797Z,23.43
2018-11-28T19:39:41.109Z,23.57
2018-11-28T19:42:08.371Z,21.57
2018-11-28T19:44:35.646Z,22.20
2018-11-28T19:47:02.944Z,24.33
2018-11-28T19:49:30.143Z,22.90
2018-11-28T19:51:57.333Z,23.13
2018-11-28T19:54:24.575Z,24.33
2018-11-28T19:56:51.840Z,23.47
2018-11-28T19:59:19.158Z,24.50
2018-11-28T20:01:46.394Z,24.43
2018-11-28T20:04:13.591Z,22.63
2018-11-28T20:06:40.896Z,22.87
2018-11-28T20:09:13.793Z,24.77
2018-11-28T20:11:41.112Z,23.90
2018-11-28T20:14:08.334Z,24.53
2018-11-28T20:16:35.638Z,23.93
2018-11-28T20:19:02.816Z,24.57
2018-11-28T20:21:30.076Z,23.40
2018-11-28T20:23:57.315Z,23.47
2018-11-28T20:26:24.571Z,24.80
2018-11-28T20:28:51.838Z,24.33
2018-11-28T20:31:19.106Z,24.13
2018-11-28T20:33:46.334Z,23.60
2018-11-28T20:36:13.591Z,22.60
2018-11-28T20:38:40.889Z,29.60
2018-11-28T20:41:08.147Z,26.70
2018-11-28T20:43:35.402Z,24.00
2018-11-28T20:46:02.647Z,25.33
2018-11-28T20:48:29.922Z,25.27
2018-11-28T20:50:57.166Z,24.30
2018-11-28T20:53:24.419Z,23.77
2018-11-28T20:55:51.651Z,24.00
2018-11-28T20:58:18.886Z,23.23
2018-11-28T21:00:46.276Z,23.53
2018-11-28T21:03:13.501Z,23.20
2018-11-28T21:05:40.819Z,21.83
2018-11-28T21:08:08.419Z,22.50
2018-11-28T21:10:36.552Z,20.70
2018-11-28T21:13:04.318Z,20.80
2018-11-28T21:15:31.580Z,22.40
2018-11-28T21:17:58.777Z,21.20
2018-11-28T21:20:26.066Z,25.10
2018-11-28T21:22:53.957Z,23.67
2018-11-28T21:25:21.176Z,22.73
2018-11-28T21:27:48.435Z,22.57
2018-11-28T21:30:16.647Z,23.70
2018-11-28T21:32:44.039Z,24.83
2018-11-28T21:35:12.815Z,23.47
2018-11-28T21:37:40.084Z,22.20
2018-11-28T21:40:07.543Z,22.00
2018-11-28T21:42:34.748Z,23.50
2018-11-28T21:45:02.069Z,23.60
2018-11-28T21:47:29.318Z,21.13
2018-11-28T21:49:56.558Z,24.23
2018-11-28T21:52:23.841Z,25.80
2018-11-28T21:54:51.022Z,22.27
2018-11-28T21:57:18.258Z,22.03
2018-11-28T21:59:45.502Z,21.73
2018-11-28T22:02:12.800Z,22.47
2018-11-28T22:04:40.042Z,22.20
2018-11-28T22:07:07.284Z,22.73
2018-11-28T22:09:34.546Z,21.93
2018-11-28T22:12:01.783Z,24.60
2018-11-28T22:14:29.019Z,23.53
2018-11-28T22:16:56.323Z,23.33
2018-11-28T22:19:23.559Z,22.63
2018-11-28T22:21:50.811Z,23.23
2018-11-28T22:24:18.055Z,24.70
2018-11-28T22:26:45.399Z,24.40
2018-11-28T22:29:13.503Z,24.20
2018-11-28T22:31:40.846Z,22.63
2018-11-28T22:34:08.047Z,25.27
2018-11-28T22:36:35.334Z,23.30
2018-11-28T22:39:03.896Z,22.80
2018-11-28T22:41:31.192Z,24.23
2018-11-28T22:43:58.361Z,23.20
2018-11-28T22:46:25.648Z,20.67
2018-11-28T22:48:52.912Z,22.27
2018-11-28T22:51:20.155Z,22.47
2018-11-28T22:53:47.403Z,23.13
2018-11-28T22:56:14.614Z,24.93
2018-11-28T22:58:41.858Z,23.07
2018-11-28T23:01:10.364Z,22.37
2018-11-28T23:03:37.653Z,24.10
2018-11-28T23:06:04.928Z,21.73
2018-11-28T23:08:32.272Z,22.50
2018-11-28T23:10:59.532Z,22.93
2018-11-28T23:13:26.839Z,22.67
2018-11-28T23:15:54.063Z,23.33
2018-11-28T23:18:21.331Z,22.10
2018-11-28T23:20:48.605Z,22.00
2018-11-28T23:23:15.926Z,23.10
2018-11-28T23:25:43.191Z,24.03
2018-11-28T23:28:10.406Z,21.20
2018-11-28T23:30:37.726Z,21.77
2018-11-28T23:33:05.780Z,22.67
2018-11-28T23:35:32.978Z,22.57
2018-11-28T23:38:00.177Z,21.73
2018-11-28T23:40:27.417Z,22.13
2018-11-28T23:42:54.878Z,21.00
2018-11-28T23:45:22.267Z,20.50
2018-11-28T23:47:49.496Z,22.20
2018-11-28T23:50:17.146Z,20.63
2018-11-28T23:52:44.487Z,23.00
2018-11-28T23:55:13.115Z,22.83
2018-11-28T23:57:40.334Z,22.13
